createdAt,value
2022-08-29T00:00:17.821Z,22.11
2022-08-29T00:02:47.346Z,21.75
2022-08-29T00:05:14.242Z,21.57
2022-08-29T00:07:40.941Z,21.48
2022-08-29T00:10:09.199Z,21.45
2022-08-29T00:12:37.452Z,21.35
2022-08-29T00:15:07.243Z,21.24
2022-08-29T00:17:33.827Z,21.24
2022-08-29T00:20:00.601Z,21.24
2022-08-29T00:22:27.219Z,21.29
2022-08-29T00:24:53.805Z,21.35
2022-08-29T00:27:20.331Z,21.37
2022-08-29T00:29:47.295Z,21.37
2022-08-29T00:32:13.830Z,21.28
2022-08-29T00:34:40.442Z,21.19
2022-08-29T00:37:06.980Z,21.11
2022-08-29T00:39:34.046Z,21.07
2022-08-29T00:42:01.312Z,21.10
2022-08-29T00:44:28.642Z,21.12
2022-08-29T00:46:58.608Z,21.09
2022-08-29T00:49:39.141Z,21.09
2022-08-29T00:52:37.387Z,21.06
2022-08-29T00:55:11.119Z,20.95
2022-08-29T00:57:42.381Z,20.76
2022-08-29T01:00:10.183Z,20.73
2022-08-29T01:02:40.739Z,20.69
2022-08-29T01:05:09.188Z,20.62
2022-08-29T01:07:35.799Z,20.61
2022-08-29T01:10:13.331Z,20.64
2022-08-29T01:12:40.830Z,20.56
2022-08-29T01:15:10.301Z,20.56
2022-08-29T01:17:44.623Z,20.52
2022-08-29T01:20:28.754Z,20.56
2022-08-29T01:23:44.928Z,20.60
2022-08-29T01:26:13.025Z,20.60
2022-08-29T01:28:47.170Z,20.54
2022-08-29T01:31:51.419Z,20.52
2022-08-29T01:34:10.550Z,20.54
2022-08-29T01:36:53.629Z,20.58
2022-08-29T01:39:24.598Z,20.47
2022-08-29T01:41:51.814Z,20.39
2022-08-29T01:44:20.919Z,20.38
2022-08-29T01:46:49.613Z,20.42
2022-08-29T01:49:18.364Z,20.37
2022-08-29T01:51:45.883Z,20.28
2022-08-29T01:54:14.385Z,20.18
2022-08-29T01:56:45.410Z,20.18
2022-08-29T01:59:14.962Z,20.22
2022-08-29T02:01:54.727Z,20.20
2022-08-29T02:04:21.327Z,20.23
2022-08-29T02:06:47.910Z,20.29
2022-08-29T02:09:14.435Z,20.23
2022-08-29T02:11:41.047Z,20.21
2022-08-29T02:14:08.128Z,20.22
2022-08-29T02:16:42.939Z,20.22
2022-08-29T02:19:09.518Z,20.18
2022-08-29T02:21:36.175Z,20.10
2022-08-29T02:24:23.935Z,20.11
2022-08-29T02:26:51.886Z,20.09
2022-08-29T02:29:18.430Z,19.91
2022-08-29T02:31:45.054Z,19.92
2022-08-29T02:34:12.550Z,19.98
2022-08-29T02:36:41.415Z,19.98
2022-08-29T02:39:08.644Z,19.86
2022-08-29T02:41:35.921Z,19.83
2022-08-29T02:44:03.714Z,19.74
2022-08-29T02:46:30.450Z,19.74
2022-08-29T02:49:00.443Z,19.75
2022-08-29T02:51:30.927Z,19.72
2022-08-29T02:53:57.913Z,19.68
2022-08-29T02:56:24.559Z,19.56
2022-08-29T02:58:51.113Z,19.55
2022-08-29T03:01:22.553Z,19.47
2022-08-29T03:03:50.530Z,19.48
2022-08-29T03:06:18.114Z,19.44
2022-08-29T03:08:44.717Z,19.42
2022-08-29T03:11:11.399Z,19.45
2022-08-29T03:13:38.651Z,19.43
2022-08-29T03:16:05.261Z,19.41
2022-08-29T03:18:32.099Z,19.40
2022-08-29T03:20:59.589Z,19.44
2022-08-29T03:23:26.126Z,19.44
2022-08-29T03:25:52.710Z,19.50
2022-08-29T03:28:19.409Z,19.49
2022-08-29T03:30:46.726Z,19.49
2022-08-29T03:33:13.321Z,19.50
2022-08-29T03:35:40.089Z,19.49
2022-08-29T03:38:06.891Z,19.43
2022-08-29T03:40:33.970Z,19.44
2022-08-29T03:43:00.771Z,19.43
2022-08-29T03:45:27.405Z,19.44
2022-08-29T03:47:54.031Z,19.44
2022-08-29T03:50:21.727Z,19.43
2022-08-29T03:52:48.683Z,19.43
2022-08-29T03:55:16.073Z,19.44
2022-08-29T03:57:43.243Z,19.39
2022-08-29T04:00:19.028Z,19.25
2022-08-29T04:02:47.466Z,19.13
2022-08-29T04:05:16.099Z,19.07
2022-08-29T04:07:50.225Z,19.05
2022-08-29T04:10:27.651Z,19.05
2022-08-29T04:12:55.097Z,19.09
2022-08-29T04:15:23.346Z,19.08
2022-08-29T04:17:55.281Z,19.08
2022-08-29T04:20:25.714Z,19.05
2022-08-29T04:22:54.211Z,19.04
2022-08-29T04:25:21.961Z,19.03
2022-08-29T04:27:49.640Z,19.02
2022-08-29T04:30:20.861Z,18.99
2022-08-29T04:32:47.449Z,19.00
2022-08-29T04:35:14.770Z,19.03
2022-08-29T04:37:42.690Z,19.09
2022-08-29T04:40:13.753Z,19.13
2022-08-29T04:42:41.322Z,19.19
2022-08-29T04:45:12.333Z,19.24
2022-08-29T04:47:39.756Z,19.28
2022-08-29T04:50:08.422Z,19.33
2022-08-29T04:52:35.042Z,19.36
2022-08-29T04:55:01.602Z,19.28
2022-08-29T04:57:28.192Z,19.34
2022-08-29T04:59:59.951Z,19.40
2022-08-29T05:02:28.161Z,19.38
2022-08-29T05:04:56.827Z,19.40
2022-08-29T05:07:26.026Z,19.39
2022-08-29T05:09:58.719Z,19.45
2022-08-29T05:12:26.577Z,19.51
2022-08-29T05:14:53.882Z,19.51
2022-08-29T05:17:21.436Z,19.61
2022-08-29T05:19:48.229Z,19.70
2022-08-29T05:22:16.719Z,19.72
2022-08-29T05:24:43.586Z,19.77
2022-08-29T05:27:13.346Z,19.86
2022-08-29T05:29:45.010Z,19.88
2022-08-29T05:32:14.896Z,19.89
2022-08-29T05:34:43.468Z,19.96
2022-08-29T05:37:17.268Z,20.03
2022-08-29T05:39:43.809Z,20.10
2022-08-29T05:42:12.296Z,20.15
2022-08-29T05:44:40.165Z,20.16
2022-08-29T05:47:09.455Z,20.22
2022-08-29T05:49:41.252Z,20.30
2022-08-29T05:52:09.199Z,20.43
2022-08-29T05:54:37.542Z,20.59
2022-08-29T05:57:05.604Z,20.68
2022-08-29T05:59:32.514Z,20.71
2022-08-29T06:01:59.074Z,20.73
2022-08-29T06:04:25.822Z,21.01
2022-08-29T06:06:52.384Z,21.13
2022-08-29T06:09:19.168Z,21.16
2022-08-29T06:11:48.887Z,21.18
2022-08-29T06:14:16.562Z,21.17
2022-08-29T06:16:43.352Z,21.24
2022-08-29T06:19:10.139Z,21.33
2022-08-29T06:21:36.681Z,21.42
2022-08-29T06:24:04.396Z,21.46
2022-08-29T06:26:31.568Z,21.49
2022-08-29T06:28:58.445Z,21.51
2022-08-29T06:31:29.148Z,21.50
2022-08-29T06:33:59.219Z,21.54
2022-08-29T06:36:27.401Z,21.57
2022-08-29T06:38:58.622Z,21.62
2022-08-29T06:41:26.190Z,21.71
2022-08-29T06:43:55.099Z,21.80
2022-08-29T06:46:25.863Z,21.91
2022-08-29T06:48:53.413Z,21.93
2022-08-29T06:51:20.483Z,21.95
2022-08-29T06:53:47.122Z,22.05
2022-08-29T06:56:15.031Z,22.03
2022-08-29T06:58:42.528Z,22.11
2022-08-29T07:01:15.268Z,22.16
2022-08-29T07:03:42.270Z,22.15
2022-08-29T07:06:09.179Z,22.22
2022-08-29T07:08:38.819Z,22.23
2022-08-29T07:11:08.099Z,22.29
2022-08-29T07:13:35.205Z,22.33
2022-08-29T07:16:01.990Z,22.40
2022-08-29T07:18:29.400Z,22.51
2022-08-29T07:20:56.005Z,22.59
2022-08-29T07:23:22.558Z,22.70
2022-08-29T07:25:49.082Z,22.81
2022-08-29T07:28:15.797Z,22.89
2022-08-29T07:30:42.461Z,22.97
2022-08-29T07:33:09.533Z,23.07
2022-08-29T07:35:36.073Z,23.18
2022-08-29T07:38:02.647Z,23.28
2022-08-29T07:40:29.739Z,23.36
2022-08-29T07:42:56.351Z,23.48
2022-08-29T07:45:23.046Z,23.49
2022-08-29T07:47:49.750Z,23.59
2022-08-29T07:50:17.082Z,23.58
2022-08-29T07:52:43.629Z,23.59
2022-08-29T07:55:10.274Z,23.55
2022-08-29T07:57:37.007Z,23.73
2022-08-29T08:00:10.054Z,23.80
2022-08-29T08:02:36.642Z,23.92
2022-08-29T08:05:03.238Z,23.97
2022-08-29T08:07:35.140Z,23.88
2022-08-29T08:10:03.125Z,24.05
2022-08-29T08:12:30.082Z,24.13
2022-08-29T08:14:57.189Z,24.27
2022-08-29T08:17:23.895Z,24.24
2022-08-29T08:19:50.401Z,24.27
2022-08-29T08:22:16.966Z,24.30
2022-08-29T08:24:43.706Z,24.48
2022-08-29T08:27:10.322Z,24.62
2022-08-29T08:29:36.853Z,24.68
2022-08-29T08:32:03.738Z,24.80
2022-08-29T08:34:30.337Z,24.92
2022-08-29T08:36:57.312Z,24.98
2022-08-29T08:39:23.879Z,25.14
2022-08-29T08:42:00.528Z,25.38
2022-08-29T08:44:52.470Z,25.51
2022-08-29T08:47:26.538Z,25.68
2022-08-29T08:50:12.864Z,25.84
2022-08-29T08:52:42.436Z,25.92
2022-08-29T08:55:25.120Z,25.99
2022-08-29T08:58:02.653Z,26.12
2022-08-29T09:00:39.294Z,25.98
2022-08-29T09:03:23.447Z,26.05
2022-08-29T09:05:49.849Z,25.99
2022-08-29T09:08:26.505Z,25.95
2022-08-29T09:11:04.248Z,26.07
2022-08-29T09:13:58.189Z,26.16
2022-08-29T09:16:31.537Z,26.15
2022-08-29T09:19:09.505Z,26.35
2022-08-29T09:21:56.065Z,26.34
2022-08-29T09:24:44.449Z,26.42
2022-08-29T09:27:23.616Z,26.51
2022-08-29T09:29:58.667Z,26.54
2022-08-29T09:32:25.237Z,26.62
2022-08-29T09:37:38.704Z,26.74
2022-08-29T09:40:12.544Z,26.87
2022-08-29T09:42:52.411Z,27.02
2022-08-29T09:45:25.334Z,27.14
2022-08-29T09:48:17.447Z,27.24
2022-08-29T09:50:44.602Z,27.41
2022-08-29T09:53:24.588Z,27.65
2022-08-29T09:55:52.894Z,27.89
2022-08-29T09:58:19.990Z,28.15
2022-08-29T10:01:00.761Z,28.35
2022-08-29T10:03:33.346Z,28.59
2022-08-29T10:06:28.148Z,28.73
2022-08-29T10:09:08.360Z,28.67
2022-08-29T10:11:56.431Z,28.61
2022-08-29T10:14:33.624Z,28.60
2022-08-29T10:17:22.691Z,28.60
2022-08-29T10:19:50.671Z,28.70
2022-08-29T10:22:27.405Z,28.78
2022-08-29T10:25:20.902Z,28.88
2022-08-29T10:27:58.498Z,28.89
2022-08-29T10:30:37.211Z,28.82
2022-08-29T10:33:16.909Z,28.78
2022-08-29T10:35:55.899Z,28.89
2022-08-29T10:38:46.072Z,28.96
2022-08-29T10:41:34.154Z,29.03
2022-08-29T10:44:01.290Z,28.96
2022-08-29T10:46:50.059Z,29.00
2022-08-29T10:49:52.184Z,29.01
2022-08-29T10:52:43.058Z,28.79
2022-08-29T10:55:35.684Z,28.84
2022-08-29T10:58:02.162Z,28.66
2022-08-29T11:01:12.186Z,28.39
2022-08-29T11:03:48.568Z,28.46
2022-08-29T11:06:30.291Z,28.44
2022-08-29T11:09:27.731Z,28.21
2022-08-29T11:12:05.514Z,28.22
2022-08-29T11:14:39.519Z,28.19
2022-08-29T11:17:09.238Z,28.32
2022-08-29T11:20:11.409Z,28.63
2022-08-29T11:22:42.772Z,28.93
2022-08-29T11:25:15.953Z,29.19
2022-08-29T11:28:04.166Z,29.25
2022-08-29T11:30:40.380Z,29.52
2022-08-29T11:33:32.718Z,29.66
2022-08-29T11:36:17.567Z,29.94
2022-08-29T11:39:05.172Z,30.13
2022-08-29T11:41:54.108Z,30.24
2022-08-29T11:44:32.027Z,30.42
2022-08-29T11:46:58.992Z,30.45
2022-08-29T11:49:46.631Z,30.70
2022-08-29T11:52:18.899Z,30.74
2022-08-29T11:55:16.170Z,30.77
2022-08-29T11:57:52.742Z,30.71
2022-08-29T12:00:38.147Z,30.71
2022-08-29T12:03:14.896Z,30.95
2022-08-29T12:05:57.819Z,31.01
2022-08-29T12:08:42.593Z,31.12
2022-08-29T12:11:09.127Z,31.19
2022-08-29T12:13:45.029Z,31.28
2022-08-29T12:16:15.431Z,31.37
2022-08-29T12:18:48.786Z,31.31
2022-08-29T12:21:33.632Z,31.27
2022-08-29T12:24:00.966Z,31.36
2022-08-29T12:26:44.631Z,31.71
2022-08-29T12:29:43.721Z,32.01
2022-08-29T12:32:23.103Z,32.31
2022-08-29T12:35:16.404Z,32.37
2022-08-29T12:37:53.951Z,32.53
2022-08-29T12:40:41.738Z,32.70
2022-08-29T12:43:17.114Z,32.85
2022-08-29T12:45:46.058Z,33.18
2022-08-29T12:48:41.262Z,33.72
2022-08-29T12:51:09.338Z,34.21
2022-08-29T12:53:37.054Z,34.50
2022-08-29T12:56:22.429Z,34.89
2022-08-29T12:58:51.682Z,35.18
2022-08-29T13:01:38.138Z,34.68
2022-08-29T13:04:06.450Z,34.86
2022-08-29T13:06:33.846Z,35.29
2022-08-29T13:09:00.830Z,35.85
2022-08-29T13:11:30.664Z,35.59
2022-08-29T13:14:06.732Z,35.87
2022-08-29T13:16:33.374Z,36.32
2022-08-29T13:19:10.947Z,36.77
2022-08-29T13:21:38.368Z,37.04
2022-08-29T13:24:12.782Z,37.64
2022-08-29T13:26:50.682Z,38.24
2022-08-29T13:29:42.438Z,38.65
2022-08-29T13:32:27.808Z,38.34
2022-08-29T13:35:15.370Z,38.16
2022-08-29T13:37:46.440Z,38.60
2022-08-29T13:40:31.626Z,38.87
2022-08-29T13:42:59.616Z,38.99
2022-08-29T13:45:27.172Z,38.75
2022-08-29T13:48:23.319Z,39.13
2022-08-29T13:50:49.882Z,39.56
2022-08-29T13:53:16.681Z,39.43
2022-08-29T13:55:43.461Z,39.60
2022-08-29T13:58:12.321Z,39.47
2022-08-29T14:00:39.390Z,39.66
2022-08-29T14:03:07.479Z,39.58
2022-08-29T14:05:35.291Z,39.37
2022-08-29T14:08:02.464Z,39.08
2022-08-29T14:10:29.031Z,38.56
2022-08-29T14:12:55.558Z,37.25
2022-08-29T14:15:22.103Z,37.44
2022-08-29T14:17:48.931Z,37.13
2022-08-29T14:20:17.666Z,36.37
2022-08-29T14:22:45.184Z,36.37
2022-08-29T14:25:12.914Z,36.11
2022-08-29T14:27:40.276Z,36.39
2022-08-29T14:30:09.023Z,36.95
2022-08-29T14:32:35.762Z,37.28
2022-08-29T14:35:03.969Z,37.46
2022-08-29T14:37:32.170Z,37.76
2022-08-29T14:39:59.111Z,37.86
2022-08-29T14:42:25.790Z,37.74
2022-08-29T14:44:52.600Z,38.03
2022-08-29T14:47:20.529Z,37.99
2022-08-29T14:49:47.085Z,37.80
2022-08-29T14:52:15.090Z,38.13
2022-08-29T14:54:44.832Z,37.88
2022-08-29T14:57:11.380Z,38.23
2022-08-29T14:59:39.538Z,37.79
2022-08-29T15:02:08.218Z,37.92
2022-08-29T15:04:36.942Z,37.85
2022-08-29T15:07:06.451Z,37.22
2022-08-29T15:09:33.233Z,37.03
2022-08-29T15:11:59.833Z,37.26
2022-08-29T15:14:27.442Z,38.11
2022-08-29T15:16:54.010Z,38.75
2022-08-29T15:22:08.506Z,38.04
2022-08-29T15:24:35.123Z,38.77
2022-08-29T15:27:02.194Z,38.40
2022-08-29T15:29:28.958Z,38.69
2022-08-29T15:32:00.103Z,39.46
2022-08-29T15:34:28.280Z,39.34
2022-08-29T15:36:56.151Z,39.83
2022-08-29T15:39:23.669Z,40.05
2022-08-29T15:41:50.421Z,40.38
2022-08-29T15:44:17.131Z,40.74
2022-08-29T15:46:50.341Z,40.24
2022-08-29T15:49:19.919Z,37.87
2022-08-29T15:51:48.162Z,36.03
2022-08-29T15:54:15.151Z,35.22
2022-08-29T15:56:42.394Z,35.30
2022-08-29T15:59:11.100Z,35.23
2022-08-29T16:01:44.300Z,33.65
2022-08-29T16:04:11.140Z,34.46
2022-08-29T16:06:38.837Z,34.81
2022-08-29T16:09:15.241Z,34.98
2022-08-29T16:11:45.912Z,34.97
2022-08-29T16:14:57.404Z,34.38
2022-08-29T16:16:59.309Z,34.60
2022-08-29T16:19:25.735Z,34.61
2022-08-29T16:21:52.713Z,35.07
2022-08-29T16:24:21.682Z,34.54
2022-08-29T16:26:48.094Z,33.96
2022-08-29T16:29:14.550Z,33.47
2022-08-29T16:31:42.899Z,33.46
2022-08-29T16:34:09.309Z,32.97
2022-08-29T16:36:37.079Z,32.40
2022-08-29T16:39:04.522Z,31.90
2022-08-29T16:41:31.570Z,31.67
2022-08-29T16:43:58.947Z,31.25
2022-08-29T16:46:27.254Z,31.17
2022-08-29T16:48:57.630Z,30.49
2022-08-29T16:51:25.874Z,30.34
2022-08-29T16:53:52.383Z,29.86
2022-08-29T16:56:19.294Z,29.64
2022-08-29T16:59:00.013Z,29.37
2022-08-29T17:01:27.242Z,29.31
2022-08-29T17:03:53.702Z,28.93
2022-08-29T17:06:20.160Z,28.76
2022-08-29T17:08:46.511Z,28.56
2022-08-29T17:11:13.142Z,28.46
2022-08-29T17:13:39.893Z,28.24
2022-08-29T17:16:07.245Z,27.99
2022-08-29T17:18:34.103Z,28.07
2022-08-29T17:21:00.611Z,28.05
2022-08-29T17:23:28.333Z,27.79
2022-08-29T17:25:54.881Z,27.67
2022-08-29T17:28:21.329Z,27.53
2022-08-29T17:30:48.782Z,27.49
2022-08-29T17:33:16.137Z,27.41
2022-08-29T17:35:43.289Z,27.12
2022-08-29T17:38:09.821Z,27.06
2022-08-29T17:40:37.338Z,26.94
2022-08-29T17:43:04.315Z,26.98
2022-08-29T17:45:32.361Z,26.81
2022-08-29T17:47:58.762Z,26.77
2022-08-29T17:50:25.495Z,26.66
2022-08-29T17:52:52.027Z,26.52
2022-08-29T17:55:19.838Z,26.51
2022-08-29T17:57:46.357Z,26.60
2022-08-29T18:00:13.374Z,26.57
2022-08-29T18:02:41.701Z,26.70
2022-08-29T18:05:13.774Z,26.52
2022-08-29T18:07:40.979Z,26.45
2022-08-29T18:10:09.774Z,26.41
2022-08-29T18:12:36.216Z,26.23
2022-08-29T18:15:03.799Z,26.02
2022-08-29T18:17:32.147Z,26.04
2022-08-29T18:20:01.255Z,25.88
2022-08-29T18:22:29.426Z,25.80
2022-08-29T18:24:57.784Z,25.73
2022-08-29T18:27:24.962Z,25.58
2022-08-29T18:29:52.059Z,25.52
2022-08-29T18:32:21.978Z,25.50
2022-08-29T18:34:48.478Z,25.57
2022-08-29T18:37:15.248Z,25.56
2022-08-29T18:39:42.998Z,25.63
2022-08-29T18:42:24.751Z,25.44
2022-08-29T18:44:56.063Z,25.24
2022-08-29T18:47:22.475Z,25.14
2022-08-29T18:50:07.513Z,25.09
2022-08-29T18:52:36.430Z,25.01
2022-08-29T18:55:04.035Z,24.95
2022-08-29T18:57:30.630Z,25.01
2022-08-29T18:59:57.329Z,25.00
2022-08-29T19:02:23.868Z,25.02
2022-08-29T19:04:50.781Z,25.03
2022-08-29T19:07:17.338Z,25.07
2022-08-29T19:09:52.998Z,25.03
2022-08-29T19:12:19.676Z,24.87
2022-08-29T19:14:46.347Z,24.91
2022-08-29T19:17:13.128Z,24.86
2022-08-29T19:19:58.031Z,24.84
2022-08-29T19:22:24.583Z,24.84
2022-08-29T19:24:50.997Z,24.66
2022-08-29T19:27:39.603Z,24.62
2022-08-29T19:30:06.018Z,24.61
2022-08-29T19:32:32.568Z,24.54
2022-08-29T19:34:59.005Z,24.45
2022-08-29T19:37:26.447Z,24.54
2022-08-29T19:39:52.924Z,24.53
2022-08-29T19:42:19.497Z,24.51
2022-08-29T19:44:45.945Z,24.46
2022-08-29T19:47:14.591Z,24.45
2022-08-29T19:49:45.444Z,24.38
2022-08-29T19:52:12.156Z,24.44
2022-08-29T19:54:38.581Z,24.43
2022-08-29T19:57:05.116Z,24.47
2022-08-29T19:59:31.973Z,24.40
2022-08-29T20:01:58.615Z,24.35
2022-08-29T20:04:25.137Z,24.30
2022-08-29T20:06:52.435Z,24.16
2022-08-29T20:09:21.026Z,24.05
2022-08-29T20:11:47.673Z,23.97
2022-08-29T20:14:14.422Z,24.11
2022-08-29T20:16:41.852Z,24.22
2022-08-29T20:19:08.413Z,24.23
2022-08-29T20:21:34.954Z,24.05
2022-08-29T20:24:02.349Z,24.04
2022-08-29T20:26:31.513Z,24.07
2022-08-29T20:28:58.742Z,23.93
2022-08-29T20:31:25.180Z,23.95
2022-08-29T20:33:51.794Z,23.89
2022-08-29T20:36:38.264Z,23.83
2022-08-29T20:39:06.174Z,23.87
2022-08-29T20:41:32.701Z,23.90
2022-08-29T20:44:06.753Z,23.91
2022-08-29T20:46:34.047Z,23.83
2022-08-29T20:49:01.471Z,23.79
2022-08-29T20:51:28.044Z,23.76
2022-08-29T20:53:55.191Z,23.73
2022-08-29T20:56:21.991Z,23.67
2022-08-29T20:58:48.400Z,23.67
2022-08-29T21:01:14.925Z,23.70
2022-08-29T21:03:59.722Z,23.65
2022-08-29T21:06:26.604Z,23.61
2022-08-29T21:08:53.035Z,23.58
2022-08-29T21:11:19.505Z,23.46
2022-08-29T21:13:46.692Z,23.40
2022-08-29T21:16:14.686Z,23.42
2022-08-29T21:18:41.407Z,23.44
2022-08-29T21:21:12.452Z,23.32
2022-08-29T21:23:39.126Z,23.23
2022-08-29T21:26:05.643Z,23.19
2022-08-29T21:28:35.006Z,23.29
2022-08-29T21:31:05.259Z,23.21
2022-08-29T21:33:33.429Z,23.13
2022-08-29T21:36:01.281Z,23.13
2022-08-29T21:38:29.094Z,23.03
2022-08-29T21:40:58.598Z,22.98
2022-08-29T21:43:25.053Z,22.99
2022-08-29T21:45:51.507Z,23.00
2022-08-29T21:48:18.018Z,22.92
2022-08-29T21:50:44.526Z,22.87
2022-08-29T21:53:11.634Z,22.84
2022-08-29T21:55:38.086Z,22.93
2022-08-29T21:58:04.555Z,22.86
2022-08-29T22:00:33.242Z,22.85
2022-08-29T22:03:00.712Z,22.83
2022-08-29T22:05:28.090Z,22.81
2022-08-29T22:07:57.651Z,22.74
2022-08-29T22:10:26.341Z,22.78
2022-08-29T22:12:53.017Z,22.77
2022-08-29T22:15:38.160Z,22.68
2022-08-29T22:18:05.203Z,22.69
2022-08-29T22:20:32.373Z,22.71
2022-08-29T22:22:58.852Z,22.65
2022-08-29T22:25:25.446Z,22.70
2022-08-29T22:27:51.883Z,22.66
2022-08-29T22:30:18.391Z,22.53
2022-08-29T22:32:44.787Z,22.55
2022-08-29T22:35:19.522Z,22.50
2022-08-29T22:37:45.966Z,22.45
2022-08-29T22:40:15.184Z,22.48
2022-08-29T22:42:41.903Z,22.45
2022-08-29T22:45:08.890Z,22.45
2022-08-29T22:47:36.445Z,22.37
2022-08-29T22:50:03.357Z,22.35
2022-08-29T22:52:29.778Z,22.28
2022-08-29T22:54:56.163Z,22.29
2022-08-29T22:57:22.832Z,22.30
2022-08-29T22:59:49.261Z,22.32
2022-08-29T23:02:17.778Z,22.31
2022-08-29T23:04:44.347Z,22.32
2022-08-29T23:07:12.129Z,22.27
2022-08-29T23:09:39.684Z,22.27
2022-08-29T23:12:06.717Z,22.22
2022-08-29T23:14:35.791Z,22.12
2022-08-29T23:17:03.047Z,22.06
2022-08-29T23:19:29.491Z,21.98
2022-08-29T23:21:57.582Z,22.00
2022-08-29T23:24:26.265Z,22.02
2022-08-29T23:26:52.737Z,22.07
2022-08-29T23:29:19.650Z,22.04
2022-08-29T23:31:46.351Z,21.93
2022-08-29T23:34:13.115Z,21.93
2022-08-29T23:36:39.594Z,21.91
2022-08-29T23:39:06.654Z,21.90
2022-08-29T23:41:33.747Z,21.83
2022-08-29T23:44:00.181Z,21.85
2022-08-29T23:46:27.334Z,21.90
2022-08-29T23:48:54.166Z,21.86
2022-08-29T23:51:20.651Z,21.83
2022-08-29T23:53:47.651Z,21.73
2022-08-29T23:56:15.806Z,21.76
2022-08-29T23:58:42.265Z,21.74
